Warning: Javascript must be enabled to use all the features on this page!


Page Loading - Please Wait...

* We've detected you're using a mobile device. Find our Next Generation Station Page here.
Click to hideNews Bulletins

Peak Streamflow for the Nation

USGS 02104220 ROCKFISH CREEK AT RAEFORD, NC

Hoke County, North Carolina
Hydrologic Unit Code 03030004
Latitude  34°59'59", Longitude  79°12'53" NAD83
Drainage area 93.1  square miles
Gage datum 170.30 feet above NAVD88
Output formats
Table
Graph
Tab-separated file
peakfq (watstore) format
Reselect output format
Water
Year
Date Gage
Height
(feet)
Stream-
flow
(cfs)
1989 1989-07-18 7.67 740
1990 1989-10-03 7.65 729
1991 1990-10-12 7.22 518
1992 1992-06-28 7.43 614
1993 1993-03-26 7.03 437
1994 1994-09-03 7.30 554
1995 1995-01-16 7.18 501
1996 1996-09-07 8.29 1,030
1997 1997-07-25 8.15 941
1998 1998-04-10 8.01 861
1999 1999-09-17 8.02 866
2000 1999-10-18 7.63 699
2001 2001-06-18 5.76 204
2002 2002-01-24 5.82 210
2003 2003-05-26 7.55 668
2004 2004-09-09 8.05 903
2005 2004-11-13 6.40 306
2006 2006-06-15 7.86 808
2007 2006-11-23 7.85 803
2008 2008-09-07 9.30 1,750
2009 2009-03-03 6.91 437
2010 2010-02-07 7.28 562
2011 2010-10-01 7.33 581
2012 2011-11-30 5.87 230
2013 2013-06-08 8.41 1,100
2014 2014-05-17 6.77 363
2015 2014-12-26 7.10 499
2016 2016-09-30 9.62 1,580
2017 2016-10-09 12.94 5,490
2018 2018-09-17 10.32 2,1309
2019 2018-11-14 8.31 843
2020 2020-09-26 9.19 1,300
2021 2020-11-13 8.72 1,040
2022 2022-03-18 6.98 394
2023 2022-10-02 7.55 555
?
  Peak Streamflow Qualification Codes.